Time;durP1;ratioP1;P1;durP2;ratioP2;P2;SDS_P1;SDS_P2;PMS_P1;PMS_P2;Temp;Humidity;BMP_temperature;BMP_pressure;BME280_temperature;BME280_humidity;BME280_pressure;Samples;Min_cycle;Max_cycle;Signal;HPM_P1;HPM_P2
2022/05/01 00:00:05;;;;;;;27.47;18.47;;;7.90;32.90;;;;;;5116256;28;20172;-72
2022/05/01 00:02:31;;;;;;;25.17;17.73;;;7.80;32.30;;;;;;5116027;28;20184;-72
2022/05/01 00:04:56;;;;;;;21.23;16.73;;;7.70;37.50;;;;;;5115809;28;20198;-71
2022/05/01 00:07:22;;;;;;;24.10;18.50;;;7.60;42.70;;;;;;5116309;28;20174;-72
2022/05/01 00:09:48;;;;;;;28.57;19.40;;;7.60;44.90;;;;;;5115829;28;20218;-71
2022/05/01 00:12:13;;;;;;;26.70;19.30;;;7.50;46.80;;;;;;5116097;28;20172;-73
2022/05/01 00:14:39;;;;;;;23.60;18.70;;;7.60;47.70;;;;;;5115969;28;20179;-73
2022/05/01 00:17:05;;;;;;;29.00;20.00;;;7.60;44.50;;;;;;5115960;28;20665;-71
2022/05/01 00:19:30;;;;;;;31.10;19.80;;;7.50;48.60;;;;;;5116001;28;20179;-72
2022/05/01 00:21:56;;;;;;;25.87;19.07;;;7.50;50.40;;;;;;5115962;28;20266;-72
2022/05/01 00:24:22;;;;;;;25.93;20.30;;;7.50;49.20;;;;;;5115755;28;20254;-71
2022/05/01 00:26:48;;;;;;;31.70;21.77;;;7.60;47.20;;;;;;5115487;28;20175;-71
2022/05/01 00:29:13;;;;;;;26.63;20.27;;;7.60;48.80;;;;;;5115721;28;20171;-71
2022/05/01 00:31:40;;;;;;;26.93;20.03;;;7.60;49.90;;;;;;5115842;28;20662;-73
2022/05/01 00:36:50;;;;;;;32.37;21.67;;;7.60;51.00;;;;;;5115788;28;20182;-71
2022/05/01 00:39:16;;;;;;;30.83;22.50;;;7.60;50.70;;;;;;5115650;28;20168;-72
2022/05/01 00:41:43;;;;;;;33.27;22.47;;;7.50;52.50;;;;;;5115302;28;20203;-71
2022/05/01 00:44:16;;;;;;;31.00;22.37;;;7.50;54.70;;;;;;5115481;28;20166;-71
2022/05/01 00:46:50;;;;;;;32.50;22.93;;;7.50;55.10;;;;;;5115583;28;20258;-71
2022/05/01 00:49:21;;;;;;;34.07;23.03;;;7.50;57.30;;;;;;5115076;28;20163;-71
2022/05/01 00:52:05;;;;;;;31.80;23.20;;;7.40;56.30;;;;;;5115535;28;20171;-72
2022/05/01 00:54:32;;;;;;;35.27;24.03;;;7.40;57.20;;;;;;5115108;28;20691;-71
2022/05/01 00:57:01;;;;;;;35.17;24.03;;;7.40;56.10;;;;;;5114697;28;20215;-72
2022/05/01 00:59:28;;;;;;;34.13;24.10;;;7.40;56.90;;;;;;5115162;28;20262;-71
2022/05/01 01:01:55;;;;;;;36.00;24.43;;;7.40;56.30;;;;;;5115101;28;20656;-71
2022/05/01 01:04:21;;;;;;;32.70;24.47;;;7.30;55.70;;;;;;5114422;28;20175;-71
2022/05/01 01:06:48;;;;;;;32.20;23.63;;;7.40;68.10;;;;;;5115151;28;20217;-71
2022/05/01 01:09:15;;;;;;;34.23;23.23;;;7.40;71.50;;;;;;5096340;28;20593;-72
2022/05/01 01:11:42;;;;;;;34.63;24.03;;;7.30;75.60;;;;;;5114646;28;20206;-72
2022/05/01 01:14:09;;;;;;;31.40;22.53;;;7.10;83.10;;;;;;5114927;28;20166;-70
2022/05/01 01:16:36;;;;;;;35.93;24.77;;;7.10;88.20;;;;;;5114724;28;20217;-72
2022/05/01 01:19:04;;;;;;;34.60;24.17;;;7.10;88.00;;;;;;5114551;28;20225;-71
2022/05/01 01:21:30;;;;;;;39.00;25.70;;;7.00;90.10;;;;;;5114719;28;20220;-71
2022/05/01 01:23:57;;;;;;;38.50;25.07;;;7.00;90.10;;;;;;5114519;28;20175;-71
2022/05/01 01:26:24;;;;;;;35.30;24.67;;;7.10;89.90;;;;;;5114366;28;20163;-71
2022/05/01 01:28:50;;;;;;;39.50;26.57;;;7.00;90.00;;;;;;5114502;28;20171;-71
2022/05/01 01:34:06;;;;;;;36.93;26.63;;;7.00;90.90;;;;;;5114431;28;20236;-72
2022/05/01 01:36:32;;;;;;;38.53;27.53;;;6.90;92.30;;;;;;5114404;28;20179;-72
2022/05/01 01:38:59;;;;;;;39.07;27.97;;;6.90;92.70;;;;;;5114226;28;20171;-71
2022/05/01 01:41:28;;;;;;;41.93;28.73;;;7.00;92.10;;;;;;5114022;28;20175;-71
2022/05/01 01:43:54;;;;;;;40.93;29.33;;;7.00;90.10;;;;;;5114517;28;20662;-71
2022/05/01 01:46:20;;;;;;;39.73;27.43;;;7.00;88.30;;;;;;5114100;28;20241;-72
2022/05/01 01:48:46;;;;;;;39.90;27.70;;;7.00;88.20;;;;;;5114180;28;20611;-71
2022/05/01 01:51:13;;;;;;;44.27;29.67;;;7.00;88.90;;;;;;5113996;28;20203;-71
2022/05/01 01:53:39;;;;;;;42.10;28.90;;;7.00;90.50;;;;;;5114160;28;20209;-71
2022/05/01 01:56:07;;;;;;;44.07;29.87;;;6.90;90.80;;;;;;5113680;28;20202;-71
2022/05/01 01:58:33;;;;;;;43.23;28.63;;;6.90;92.40;;;;;;5113877;28;20219;-72
2022/05/01 02:00:59;;;;;;;46.67;30.67;;;6.90;93.10;;;;;;5113877;28;20186;-72
2022/05/01 02:03:26;;;;;;;41.80;29.37;;;6.90;93.50;;;;;;5114092;28;20175;-71
2022/05/01 02:05:52;;;;;;;41.77;30.27;;;6.90;93.00;;;;;;5113918;28;20179;-73
2022/05/01 02:08:18;;;;;;;43.20;29.77;;;6.80;93.70;;;;;;5113987;28;20167;-71
2022/05/01 02:10:44;;;;;;;41.87;30.77;;;6.80;93.90;;;;;;5113648;28;20700;-71
2022/05/01 02:13:10;;;;;;;46.37;29.77;;;6.80;93.60;;;;;;5113859;28;20263;-72
2022/05/01 02:15:37;;;;;;;45.47;30.50;;;6.70;93.10;;;;;;5113306;28;20179;-72
2022/05/01 02:18:04;;;;;;;49.03;31.00;;;6.70;94.10;;;;;;5113350;28;20179;-74
2022/05/01 02:23:18;;;;;;;48.83;31.07;;;6.70;94.80;;;;;;5051075;28;20177;-72
2022/05/01 02:25:43;;;;;;;50.97;31.47;;;6.70;94.70;;;;;;5051155;28;20178;-73
2022/05/01 02:28:10;;;;;;;46.43;31.20;;;6.80;93.70;;;;;;5051074;28;20181;-72
2022/05/01 02:30:37;;;;;;;50.60;32.70;;;6.70;93.30;;;;;;5050988;28;20196;-72
2022/05/01 02:33:03;;;;;;;53.53;31.00;;;6.70;93.60;;;;;;5051092;28;20173;-72
2022/05/01 02:35:28;;;;;;;49.33;31.23;;;6.70;94.80;;;;;;5050642;28;20272;-71
2022/05/01 02:37:54;;;;;;;47.53;32.40;;;6.70;95.10;;;;;;5050621;28;20196;-72
2022/05/01 02:40:19;;;;;;;53.30;32.73;;;6.70;95.60;;;;;;5051043;28;20260;-72
2022/05/01 02:42:45;;;;;;;53.17;33.17;;;6.70;95.70;;;;;;5051138;28;20176;-72
2022/05/01 02:45:10;;;;;;;47.37;32.47;;;6.70;95.40;;;;;;5050702;28;20181;-72
2022/05/01 02:47:36;;;;;;;52.20;33.87;;;6.70;94.90;;;;;;5050934;28;20268;-72
2022/05/01 02:50:03;;;;;;;50.53;33.20;;;6.60;95.50;;;;;;5050512;28;20258;-72
2022/05/01 02:52:28;;;;;;;52.37;33.33;;;6.60;96.20;;;;;;5050547;28;20326;-72
2022/05/01 02:54:54;;;;;;;51.77;33.13;;;6.50;97.70;;;;;;5050706;28;20687;-72
2022/05/01 02:57:20;;;;;;;57.40;34.93;;;6.50;98.40;;;;;;5050546;28;20266;-71
2022/05/01 02:59:45;;;;;;;51.67;32.83;;;6.40;98.90;;;;;;5066420;28;20284;-72
2022/05/01 03:02:11;;;;;;;52.10;34.37;;;6.40;99.50;;;;;;5113480;28;20247;-72
2022/05/01 03:04:38;;;;;;;52.10;33.27;;;6.40;99.90;;;;;;5112680;28;20525;-73
2022/05/01 03:07:04;;;;;;;52.03;34.17;;;6.40;99.90;;;;;;5113213;28;20618;-72
2022/05/01 03:09:30;;;;;;;52.77;35.10;;;6.40;99.90;;;;;;5113358;28;20223;-71
2022/05/01 03:11:56;;;;;;;50.03;34.27;;;6.40;99.90;;;;;;5113232;28;20202;-72
2022/05/01 03:14:21;;;;;;;56.33;35.43;;;6.40;99.80;;;;;;5113210;28;20645;-72
2022/05/01 03:16:47;;;;;;;60.47;35.87;;;6.40;99.60;;;;;;5113221;28;20174;-72
2022/05/01 03:22:13;;;;;;;61.57;38.03;;;6.40;99.90;;;;;;5113303;28;20183;-73
2022/05/01 03:24:40;;;;;;;52.17;35.63;;;6.40;99.90;;;;;;5113276;28;20202;-71
2022/05/01 03:27:07;;;;;;;55.40;36.33;;;6.50;99.90;;;;;;5113142;28;20202;-71
2022/05/01 03:29:34;;;;;;;67.10;37.30;;;6.50;99.90;;;;;;5116257;28;20211;-71
2022/05/01 03:32:00;;;;;;;58.50;36.73;;;6.40;99.90;;;;;;5116696;28;20208;-71
2022/05/01 03:34:26;;;;;;;58.30;36.40;;;6.50;99.90;;;;;;5116617;28;20175;-71
2022/05/01 03:36:55;;;;;;;56.03;35.47;;;6.50;99.90;;;;;;5116342;28;20203;-71
2022/05/01 03:39:21;;;;;;;60.47;36.80;;;6.50;99.90;;;;;;5116819;28;20171;-72
2022/05/01 03:41:47;;;;;;;58.77;37.57;;;6.60;99.80;;;;;;5116451;28;20202;-71
2022/05/01 03:44:13;;;;;;;62.77;39.27;;;6.70;97.80;;;;;;5116521;28;20250;-72
2022/05/01 03:46:39;;;;;;;59.43;37.30;;;6.60;97.40;;;;;;5116479;28;20226;-72
2022/05/01 03:49:11;;;;;;;54.60;36.30;;;6.60;98.20;;;;;;5115975;28;20203;-72
2022/05/01 03:51:36;;;;;;;55.97;34.13;;;6.50;99.20;;;;;;5116082;28;20186;-72
2022/05/01 03:54:03;;;;;;;60.17;37.10;;;6.60;99.20;;;;;;5116336;28;20618;-72
2022/05/01 03:56:30;;;;;;;61.67;37.33;;;6.60;97.50;;;;;;5115800;28;20179;-71
2022/05/01 03:58:56;;;;;;;60.57;38.17;;;6.50;97.90;;;;;;5115772;28;20185;-71
2022/05/01 04:01:22;;;;;;;62.40;38.07;;;6.50;99.30;;;;;;5116377;28;20186;-71
2022/05/01 04:03:48;;;;;;;57.90;36.77;;;6.40;99.80;;;;;;5115529;28;20522;-71
2022/05/01 04:06:14;;;;;;;59.93;37.63;;;6.50;99.80;;;;;;5115604;28;20566;-71
2022/05/01 04:08:41;;;;;;;61.67;37.47;;;6.60;98.40;;;;;;5116015;28;20167;-71
2022/05/01 04:11:06;;;;;;;59.43;37.43;;;6.70;96.60;;;;;;5115757;28;20214;-71
2022/05/01 04:13:33;;;;;;;58.10;36.07;;;6.70;95.20;;;;;;5115698;28;20171;-71
2022/05/01 04:15:58;;;;;;;52.07;34.93;;;6.60;94.60;;;;;;5115884;28;20258;-70
2022/05/01 04:18:25;;;;;;;58.23;35.60;;;6.60;94.90;;;;;;5115661;28;20597;-71
2022/05/01 04:20:52;;;;;;;57.87;33.23;;;6.60;94.40;;;;;;5115564;28;20645;-71
2022/05/01 04:23:18;;;;;;;54.07;34.70;;;6.60;94.90;;;;;;5115914;28;20163;-71
2022/05/01 04:25:44;;;;;;;47.20;32.13;;;6.60;95.50;;;;;;5115750;28;20204;-70
2022/05/01 04:28:11;;;;;;;49.90;33.20;;;6.60;96.00;;;;;;5115658;28;20181;-70
2022/05/01 04:30:39;;;;;;;51.50;33.80;;;6.70;96.50;;;;;;5115310;28;20733;-71
2022/05/01 04:33:06;;;;;;;57.77;34.73;;;6.80;96.60;;;;;;5115647;28;20198;-71
2022/05/01 04:35:37;;;;;;;48.70;32.53;;;7.10;97.00;;;;;;5115274;28;20183;-71
2022/05/01 04:38:08;;;;;;;44.47;31.77;;;7.20;99.80;;;;;;5115856;28;20178;-71
2022/05/01 04:40:43;;;;;;;43.60;29.80;;;7.50;99.90;;;;;;5113938;28;20163;-71
2022/05/01 04:43:10;;;;;;;41.83;29.53;;;7.80;99.90;;;;;;5115474;28;20175;-70
2022/05/01 04:45:40;;;;;;;40.27;27.50;;;8.20;99.90;;;;;;5114990;28;20171;-70
2022/05/01 04:48:07;;;;;;;35.87;28.00;;;8.70;99.90;;;;;;5115245;28;20254;-71
2022/05/01 04:50:33;;;;;;;35.70;27.40;;;9.20;98.40;;;;;;5114753;28;20214;-71
2022/05/01 04:53:01;;;;;;;35.87;26.23;;;9.70;90.40;;;;;;5114887;28;20183;-70
2022/05/01 04:55:27;;;;;;;31.70;25.27;;;10.30;57.50;;;;;;5114974;28;20258;-71
2022/05/01 04:57:53;;;;;;;31.73;25.03;;;11.00;16.10;;;;;;5114805;28;20219;-70
2022/05/01 05:00:19;;;;;;;30.23;24.53;;;11.80;1.00;;;;;;5114807;28;20198;-70
2022/05/01 05:02:51;;;;;;;31.90;24.00;;;12.30;1.00;;;;;;5114772;28;20167;-70
2022/05/01 05:05:18;;;;;;;32.27;25.30;;;12.60;1.00;;;;;;5114848;28;20171;-71
2022/05/01 05:07:44;;;;;;;31.97;24.67;;;13.20;1.00;;;;;;5115021;28;20229;-70
2022/05/01 05:10:11;;;;;;;28.30;25.20;;;14.00;99.90;;;;;;5114690;28;20203;-71
2022/05/01 05:12:39;;;;;;;32.53;25.77;;;14.70;1.00;;;;;;5114724;28;20262;-70
2022/05/01 05:15:09;;;;;;;30.90;26.10;;;15.30;99.90;;;;;;5114472;28;20163;-71
2022/05/01 05:17:35;;;;;;;31.67;25.87;;;15.70;1.00;;;;;;5114321;28;20171;-71
2022/05/01 05:20:01;;;;;;;30.53;25.37;;;16.20;1.00;;;;;;5114480;28;20680;-71
2022/05/01 05:22:27;;;;;;;29.43;26.17;;;16.70;99.90;;;;;;5114509;28;20170;-72
2022/05/01 05:24:53;;;;;;;32.03;26.27;;;17.50;1.00;;;;;;5114189;28;20171;-71
2022/05/01 05:27:20;;;;;;;29.43;25.70;;;18.00;1.00;;;;;;5114369;28;20175;-72
2022/05/01 05:29:47;;;;;;;30.73;25.33;;;18.50;1.00;;;;;;5113950;28;20183;-71
2022/05/01 05:32:13;;;;;;;29.07;25.97;;;18.70;1.00;;;;;;5113855;28;20183;-72
2022/05/01 05:34:38;;;;;;;33.63;26.50;;;18.90;99.90;;;;;;5113874;28;20650;-72
2022/05/01 05:37:04;;;;;;;30.30;26.13;;;18.80;99.90;;;;;;5114069;28;20610;-71
2022/05/01 05:39:30;;;;;;;29.33;25.70;;;18.80;99.90;;;;;;5114051;28;20168;-72
2022/05/01 05:41:56;;;;;;;31.03;26.97;;;18.80;99.90;;;;;;5114154;28;20206;-72
2022/05/01 05:44:21;;;;;;;32.13;25.87;;;19.00;99.90;;;;;;5113500;28;20633;-71
2022/05/01 05:46:47;;;;;;;33.50;26.90;;;19.30;99.90;;;;;;5113587;28;20176;-71
2022/05/01 05:49:13;;;;;;;32.03;26.70;;;19.10;99.90;;;;;;5113627;28;20175;-73
2022/05/01 05:51:38;;;;;;;30.03;26.83;;;19.60;99.90;;;;;;5113480;28;20211;-72
2022/05/01 05:54:04;;;;;;;31.60;27.63;;;19.50;99.90;;;;;;5113654;28;20236;-73
2022/05/01 05:56:30;;;;;;;35.87;27.13;;;19.10;99.90;;;;;;5113617;28;20250;-72
2022/05/01 05:58:56;;;;;;;30.70;27.17;;;18.90;99.90;;;;;;5113099;28;20175;-73
2022/05/01 06:01:21;;;;;;;32.50;27.67;;;19.50;99.90;;;;;;5113628;28;20195;-74
2022/05/01 06:03:49;;;;;;;34.15;27.50;;;20.20;99.90;;;;;;5113494;28;20581;-74
2022/05/01 06:06:15;;;;;;;30.58;26.42;;;20.70;99.90;;;;;;5114007;28;20193;-74
2022/05/01 06:08:41;;;;;;;32.08;27.73;;;20.70;99.90;;;;;;5113795;28;20260;-73
2022/05/01 06:11:07;;;;;;;31.90;27.42;;;20.30;99.90;;;;;;5113056;28;20199;-73
2022/05/01 06:13:33;;;;;;;29.80;26.70;;;20.10;99.90;;;;;;5113181;28;20254;-74
2022/05/01 06:15:59;;;;;;;30.13;26.85;;;20.00;99.90;;;;;;5113288;28;20243;-76
2022/05/01 06:18:24;;;;;;;29.80;25.85;;;20.30;99.90;;;;;;5113589;28;20239;-75
2022/05/01 06:20:50;;;;;;;29.60;26.05;;;20.80;99.90;;;;;;5113413;28;20167;-75
2022/05/01 06:23:16;;;;;;;30.73;26.73;;;22.00;99.90;;;;;;5113658;28;20170;-75
2022/05/01 06:25:46;;;;;;;29.67;26.65;;;22.50;99.90;;;;;;5113171;28;20527;-75
2022/05/01 06:28:16;;;;;;;29.50;26.25;;;22.60;99.90;;;;;;5113641;28;20164;-75
2022/05/01 06:30:44;;;;;;;29.83;26.15;;;22.20;99.90;;;;;;5112772;28;20206;-75
2022/05/01 06:33:12;;;;;;;28.42;25.40;;;22.30;99.90;;;;;;5113328;28;20650;-74
2022/05/01 06:35:39;;;;;;;27.80;24.80;;;21.70;99.90;;;;;;5113012;28;20590;-75
2022/05/01 06:38:05;;;;;;;25.92;23.23;;;22.10;99.90;;;;;;5112988;28;20238;-74
2022/05/01 06:40:30;;;;;;;29.60;25.75;;;23.70;99.90;;;;;;5113493;28;20206;-74
2022/05/01 06:42:56;;;;;;;27.02;24.27;;;23.90;99.90;;;;;;5113261;28;20195;-78
2022/05/01 06:45:22;;;;;;;28.15;25.27;;;24.10;99.90;;;;;;5112385;28;20174;-74
2022/05/01 06:47:47;;;;;;;27.67;24.60;;;24.50;99.90;;;;;;5112973;28;20255;-75
2022/05/01 06:50:14;;;;;;;27.50;24.60;;;24.70;99.90;;;;;;5112403;28;20202;-76
2022/05/01 06:52:39;;;;;;;35.90;25.88;;;24.60;99.90;;;;;;5113234;28;20300;-75
2022/05/01 06:55:06;;;;;;;28.08;24.83;;;26.00;99.90;;;;;;5113223;28;20278;-76
2022/05/01 06:57:31;;;;;;;29.65;26.00;;;25.70;99.90;;;;;;5112278;28;20275;-76
2022/05/01 06:59:57;;;;;;;28.45;25.48;;;25.70;99.90;;;;;;5112897;28;20167;-76
2022/05/01 07:02:23;;;;;;;26.98;24.38;;;25.80;99.90;;;;;;5112888;28;20522;-78
2022/05/01 07:04:48;;;;;;;28.55;25.75;;;26.30;99.90;;;;;;5117130;28;20213;-75
2022/05/01 07:07:14;;;;;;;28.17;25.08;;;25.60;99.90;;;;;;5116875;28;20175;-75
2022/05/01 07:09:40;;;;;;;27.20;24.42;;;25.70;99.90;;;;;;5117100;28;20206;-76
2022/05/01 07:12:10;;;;;;;28.50;24.88;;;25.70;99.90;;;;;;5116691;28;20308;-75
2022/05/01 07:14:39;;;;;;;27.00;24.25;;;25.90;99.90;;;;;;5116259;28;20199;-76
2022/05/01 07:17:05;;;;;;;27.33;24.58;;;25.50;99.90;;;;;;5116887;28;20175;-76
2022/05/01 07:19:31;;;;;;;27.10;24.30;;;25.60;99.90;;;;;;5116725;28;20212;-75
2022/05/01 07:21:56;;;;;;;27.67;24.70;;;25.20;99.90;;;;;;5116447;28;20167;-75
2022/05/01 07:24:22;;;;;;;26.35;23.65;;;26.00;99.90;;;;;;5116911;28;20171;-76
2022/05/01 07:26:47;;;;;;;27.15;24.35;;;27.00;99.90;;;;;;5116290;28;20584;-75
2022/05/01 07:29:13;;;;;;;26.75;24.08;;;27.30;99.90;;;;;;5116354;28;20163;-76
2022/05/01 07:31:39;;;;;;;26.33;23.60;;;27.20;99.90;;;;;;5116571;28;20688;-77
2022/05/01 07:34:05;;;;;;;25.63;23.08;;;26.80;99.90;;;;;;5116803;28;20167;-76
2022/05/01 07:36:31;;;;;;;26.10;23.35;;;24.80;99.90;;;;;;5116469;28;20175;-75
2022/05/01 07:38:57;;;;;;;24.13;21.63;;;24.40;99.90;;;;;;5116932;28;20191;-75
2022/05/01 07:41:23;;;;;;;23.88;21.38;;;24.10;99.90;;;;;;5116451;28;20227;-76
2022/05/01 07:43:49;;;;;;;24.70;22.20;;;23.70;99.90;;;;;;5116069;28;20689;-76
2022/05/01 07:46:14;;;;;;;25.58;21.50;;;22.80;99.90;;;;;;5116173;28;20171;-76
2022/05/01 07:48:40;;;;;;;24.17;21.70;;;22.60;99.90;;;;;;5115528;28;20296;-75
2022/05/01 07:51:07;;;;;;;23.67;21.20;;;22.80;99.90;;;;;;5115851;28;20210;-77
2022/05/01 07:53:33;;;;;;;24.52;21.33;;;23.60;99.90;;;;;;5116309;28;20642;-76
2022/05/01 07:55:59;;;;;;;25.50;21.17;;;23.30;99.90;;;;;;5115659;28;20187;-76
2022/05/01 07:58:24;;;;;;;24.83;21.92;;;23.40;99.90;;;;;;5115197;28;20580;-75
2022/05/01 08:00:50;;;;;;;23.40;20.95;;;23.50;99.90;;;;;;5115703;28;20170;-77
2022/05/01 08:06:00;;;;;;;22.40;19.70;;;22.50;99.90;;;;;;5115835;28;20687;-75
2022/05/01 08:08:26;;;;;;;20.38;18.20;;;22.50;99.90;;;;;;5115675;28;20171;-75
2022/05/01 08:10:52;;;;;;;19.40;17.05;;;23.90;99.90;;;;;;5114760;28;20207;-76
2022/05/01 08:13:18;;;;;;;19.00;17.15;;;25.00;99.90;;;;;;5115700;28;20173;-76
2022/05/01 08:15:43;;;;;;;16.90;15.20;;;26.50;99.90;;;;;;5114695;28;20576;-76
2022/05/01 08:21:06;;;;;;;15.25;13.75;;;27.20;96.70;;;;;;5115476;28;20179;-76
2022/05/01 08:23:32;;;;;;;17.00;15.38;;;25.50;99.60;;;;;;5115316;28;20209;-77
2022/05/01 08:26:02;;;;;;;14.43;12.88;;;27.30;95.80;;;;;;5114570;28;20175;-77
2022/05/01 08:28:30;;;;;;;14.50;13.05;;;26.70;93.80;;;;;;5115987;28;20174;-76
2022/05/01 08:30:55;;;;;;;15.23;13.40;;;27.00;92.00;;;;;;5115072;28;20207;-76
2022/05/01 08:33:21;;;;;;;14.73;13.30;;;27.60;89.60;;;;;;5115257;28;20507;-77
2022/05/01 08:35:47;;;;;;;14.30;12.93;;;27.60;82.80;;;;;;5114980;28;20184;-76
2022/05/01 08:38:12;;;;;;;15.13;13.75;;;27.20;81.80;;;;;;5115647;28;20182;-76
2022/05/01 08:40:38;;;;;;;11.98;10.88;;;26.90;83.50;;;;;;5114851;28;20638;-77
2022/05/01 08:43:04;;;;;;;13.05;11.85;;;26.20;79.30;;;;;;5115204;28;20531;-77
2022/05/01 08:45:45;;;;;;;11.95;10.65;;;26.50;82.50;;;;;;5114903;28;20550;-77
2022/05/01 08:48:22;;;;;;;11.93;10.93;;;27.10;81.90;;;;;;5096562;28;20194;-77
2022/05/01 08:50:50;;;;;;;13.65;12.15;;;27.70;74.70;;;;;;5115189;28;20748;-77
2022/05/01 08:53:17;;;;;;;11.98;10.88;;;28.30;67.40;;;;;;5096946;28;20224;-78
2022/05/01 08:55:44;;;;;;;12.05;10.50;;;26.70;63.30;;;;;;5114683;28;20186;-78
2022/05/01 08:58:10;;;;;;;11.85;10.90;;;25.80;67.30;;;;;;5113826;28;20313;-78
2022/05/01 09:00:37;;;;;;;10.15;9.25;;;24.90;68.20;;;;;;5114653;28;20171;-77
2022/05/01 09:03:05;;;;;;;8.65;8.00;;;25.10;71.70;;;;;;5114574;28;20261;-78
2022/05/01 09:05:31;;;;;;;10.00;9.10;;;24.30;71.80;;;;;;5114143;28;20163;-76
2022/05/01 09:07:57;;;;;;;9.27;8.48;;;23.90;75.00;;;;;;5114556;28;20191;-77
2022/05/01 09:10:26;;;;;;;8.55;7.75;;;25.00;74.50;;;;;;5113845;28;20230;-77
2022/05/01 09:12:53;;;;;;;8.07;7.40;;;26.50;68.80;;;;;;5114604;28;20236;-77
2022/05/01 09:15:37;;;;;;;8.18;7.47;;;27.00;59.90;;;;;;5114268;28;20179;-77
2022/05/01 09:18:04;;;;;;;7.30;6.70;;;27.10;56.70;;;;;;5114228;28;20217;-79
2022/05/01 09:20:31;;;;;;;8.25;7.45;;;24.30;54.80;;;;;;5114307;28;20232;-78
2022/05/01 09:22:58;;;;;;;7.88;7.28;;;21.60;68.30;;;;;;5114358;28;20192;-76
2022/05/01 09:25:27;;;;;;;8.25;7.40;;;19.90;83.00;;;;;;5113132;28;20631;-77
2022/05/01 09:27:57;;;;;;;6.38;5.82;;;19.70;91.50;;;;;;5113930;28;20648;-75
2022/05/01 09:30:38;;;;;;;6.93;6.20;;;18.80;97.50;;;;;;5113279;28;20301;-78
2022/05/01 09:33:04;;;;;;;4.82;4.45;;;18.40;99.90;;;;;;5114133;28;20171;-77
2022/05/01 09:35:36;;;;;;;5.15;4.07;;;18.40;99.90;;;;;;5113809;28;20281;-77
2022/05/01 09:38:15;;;;;;;6.60;6.00;;;19.40;99.90;;;;;;5113794;28;20200;-78
2022/05/01 09:40:47;;;;;;;3.90;3.50;;;20.30;98.10;;;;;;5113215;28;20163;-78
2022/05/01 09:43:31;;;;;;;4.88;4.47;;;20.90;94.70;;;;;;5114144;28;20159;-77
2022/05/01 09:46:17;;;;;;;6.80;6.30;;;21.40;89.00;;;;;;5113747;28;20238;-78
2022/05/01 09:49:01;;;;;;;7.60;6.05;;;21.00;92.00;;;;;;5113077;28;20204;-77
2022/05/01 09:51:38;;;;;;;3.65;3.38;;;21.70;92.80;;;;;;5113936;28;20217;-78
2022/05/01 09:54:05;;;;;;;4.78;4.10;;;21.70;86.50;;;;;;5113227;28;20641;-78
2022/05/01 09:56:51;;;;;;;4.68;4.38;;;22.10;84.80;;;;;;5113719;28;20626;-79
2022/05/01 09:59:20;;;;;;;4.20;3.90;;;24.00;75.70;;;;;;5112821;28;20174;-79
2022/05/01 10:02:02;;;;;;;4.75;4.35;;;25.10;64.70;;;;;;5112979;28;20613;-78
2022/05/01 10:04:28;;;;;;;5.57;5.15;;;25.20;58.50;;;;;;5113436;28;20175;-78
2022/05/01 10:06:56;;;;;;;5.15;4.60;;;25.20;56.90;;;;;;5113086;28;20221;-78
2022/05/01 10:09:24;;;;;;;5.28;4.90;;;24.60;56.50;;;;;;5113481;28;20258;-77
2022/05/01 10:11:58;;;;;;;5.18;4.63;;;24.00;56.50;;;;;;5113486;28;20634;-78
2022/05/01 10:14:26;;;;;;;5.20;4.80;;;24.50;58.20;;;;;;5113843;28;20167;-78
2022/05/01 10:16:54;;;;;;;7.15;4.82;;;24.90;54.40;;;;;;5113238;28;20190;-79
2022/05/01 10:19:23;;;;;;;4.78;4.47;;;25.20;50.40;;;;;;5112982;28;20170;-79
2022/05/01 10:21:51;;;;;;;5.45;5.05;;;24.40;49.20;;;;;;5112625;28;20615;-78
2022/05/01 10:24:18;;;;;;;6.90;6.10;;;22.50;48.80;;;;;;5113226;28;20476;-77
2022/05/01 10:27:15;;;;;;;6.95;6.00;;;21.50;56.50;;;;;;5113264;28;20192;-75
2022/05/01 10:33:11;;;;;;;7.07;6.38;;;20.10;70.70;;;;;;5113423;28;20533;-78
2022/05/01 10:35:57;;;;;;;7.10;6.50;;;20.00;76.90;;;;;;5113370;28;20167;-75
2022/05/01 10:38:43;;;;;;;7.22;6.55;;;20.40;80.00;;;;;;5112062;28;20199;-76
2022/05/01 10:41:11;;;;;;;7.15;6.47;;;20.30;78.50;;;;;;5113067;28;20159;-76
2022/05/01 10:43:38;;;;;;;7.07;6.28;;;19.90;80.30;;;;;;5113296;28;20220;-76
2022/05/01 10:46:18;;;;;;;6.78;6.18;;;20.70;85.40;;;;;;5112886;28;20171;-76
2022/05/01 10:48:44;;;;;;;6.80;6.20;;;21.00;81.90;;;;;;5113181;28;20242;-76
2022/05/01 10:51:31;;;;;;;7.55;6.95;;;20.20;79.30;;;;;;5112150;28;20203;-75
2022/05/01 10:54:14;;;;;;;10.30;7.20;;;17.30;94.20;;;;;;5113276;28;20178;-76
2022/05/01 10:56:42;;;;;;;7.15;6.55;;;18.10;99.90;;;;;;5112713;28;20181;-77
2022/05/01 10:59:32;;;;;;;6.80;6.20;;;19.10;99.90;;;;;;5111784;28;20164;-77
2022/05/01 11:01:59;;;;;;;7.32;6.68;;;20.30;97.60;;;;;;5100454;28;20654;-78
2022/05/01 11:04:26;;;;;;;7.50;6.80;;;21.60;94.00;;;;;;5113055;28;20179;-77
2022/05/01 11:06:56;;;;;;;8.82;7.22;;;22.90;87.20;;;;;;5112145;28;20201;-78
2022/05/01 11:09:23;;;;;;;7.93;6.97;;;23.40;77.60;;;;;;5113085;28;20175;-78
2022/05/01 11:11:59;;;;;;;8.27;7.57;;;23.60;75.80;;;;;;5112949;28;20202;-79
2022/05/01 11:15:01;;;;;;;8.55;7.72;;;22.30;68.80;;;;;;5112459;28;20182;-77
2022/05/01 11:17:36;;;;;;;7.45;6.75;;;20.60;77.80;;;;;;5112033;28;20240;-77
2022/05/01 11:20:14;;;;;;;8.43;7.47;;;21.00;86.70;;;;;;5112666;28;20652;-79
2022/05/01 11:22:40;;;;;;;7.63;7.03;;;21.30;85.50;;;;;;5112288;28;20171;-78
2022/05/01 11:25:10;;;;;;;7.63;6.93;;;21.50;84.90;;;;;;5112543;28;20175;-79
2022/05/01 11:27:53;;;;;;;7.38;6.70;;;20.50;84.30;;;;;;5112698;28;20203;-79
2022/05/01 11:30:27;;;;;;;7.45;6.80;;;20.60;90.70;;;;;;5112499;28;20206;-77
2022/05/01 11:33:08;;;;;;;7.50;6.90;;;22.20;89.80;;;;;;5112239;28;20248;-77
2022/05/01 11:35:56;;;;;;;8.48;7.55;;;23.30;82.90;;;;;;5111947;28;20529;-77
2022/05/01 11:38:24;;;;;;;7.50;6.80;;;24.90;68.20;;;;;;5112370;28;20190;-76
2022/05/01 11:40:55;;;;;;;7.78;7.03;;;25.20;58.40;;;;;;5112510;28;20622;-78
2022/05/01 11:43:21;;;;;;;8.40;7.68;;;24.20;54.60;;;;;;5112453;28;20171;-77
2022/05/01 11:45:47;;;;;;;9.63;8.88;;;21.90;62.40;;;;;;5112019;28;20175;-77
2022/05/01 11:48:17;;;;;;;9.18;8.30;;;19.60;72.00;;;;;;5112034;28;20170;-77
2022/05/01 11:50:43;;;;;;;8.10;7.40;;;19.70;89.30;;;;;;5115823;28;20811;-76
2022/05/01 11:53:25;;;;;;;8.23;7.43;;;19.80;91.40;;;;;;5116120;28;20249;-76
2022/05/01 12:04:30;;;;;;;8.00;7.30;;;18.50;99.90;;;;;;5115532;28;20178;-79
2022/05/01 12:07:20;;;;;;;7.82;7.13;;;17.70;99.90;;;;;;5097597;28;20175;-78
2022/05/01 12:09:47;;;;;;;9.02;8.27;;;18.40;99.90;;;;;;5114899;28;20170;-78
2022/05/01 12:12:16;;;;;;;8.65;7.90;;;18.60;99.90;;;;;;5115225;28;20205;-77
2022/05/01 12:14:44;;;;;;;9.50;8.60;;;18.10;99.90;;;;;;5115615;28;20160;-76
2022/05/01 12:17:16;;;;;;;9.02;8.18;;;18.60;99.90;;;;;;5115701;28;20244;-76
2022/05/01 12:19:44;;;;;;;8.95;7.07;;;19.30;99.90;;;;;;5115367;28;20225;-76
2022/05/01 12:22:14;;;;;;;8.10;7.40;;;19.50;99.90;;;;;;5114732;28;20175;-77
2022/05/01 12:24:44;;;;;;;10.18;7.32;;;19.30;99.90;;;;;;5115407;28;20213;-78
2022/05/01 12:27:12;;;;;;;7.18;6.55;;;18.60;99.90;;;;;;5114937;28;20225;-77
2022/05/01 12:29:41;;;;;;;7.50;6.78;;;19.10;99.90;;;;;;5115296;28;20250;-76
2022/05/01 12:32:09;;;;;;;9.43;8.02;;;19.60;99.90;;;;;;5114375;28;20187;-77
2022/05/01 12:34:44;;;;;;;8.25;7.45;;;18.90;99.90;;;;;;5115010;28;20167;-76
2022/05/01 12:37:12;;;;;;;9.32;8.40;;;18.00;99.90;;;;;;5115090;28;20182;-78
2022/05/01 12:39:38;;;;;;;8.25;7.50;;;18.30;99.90;;;;;;5114758;28;20163;-75
2022/05/01 12:45:11;;;;;;;7.50;6.90;;;18.60;99.90;;;;;;5114814;28;20258;-77
2022/05/01 12:47:40;;;;;;;8.50;7.30;;;19.00;99.90;;;;;;5114338;28;20537;-76
2022/05/01 12:50:19;;;;;;;8.05;7.45;;;19.40;99.90;;;;;;5114007;28;20207;-76
2022/05/01 12:52:47;;;;;;;11.60;8.25;;;19.20;99.90;;;;;;5114709;28;20186;-77
2022/05/01 12:55:17;;;;;;;8.35;7.60;;;19.30;99.90;;;;;;5115164;28;20614;-75
2022/05/01 12:57:57;;;;;;;7.72;7.00;;;19.70;99.90;;;;;;5114150;28;20268;-74
2022/05/01 13:00:34;;;;;;;8.25;7.65;;;19.80;99.90;;;;;;5113517;28;20194;-74
2022/05/01 13:03:16;;;;;;;10.02;7.05;;;20.00;99.90;;;;;;5113333;28;20299;-75
2022/05/01 13:05:59;;;;;;;8.38;7.57;;;20.60;99.90;;;;;;5114040;28;20159;-76
2022/05/01 13:08:25;;;;;;;8.77;7.90;;;20.90;99.90;;;;;;5114827;28;20167;-76
2022/05/01 13:11:12;;;;;;;10.20;8.45;;;20.20;99.80;;;;;;5113272;28;20201;-76
2022/05/01 13:13:56;;;;;;;10.68;9.57;;;19.00;99.90;;;;;;5114343;28;20642;-76